sensor_id;sensor_type;location;lat;lon;timestamp;temperature;humidity
21844;DHT22;11084;52.482;9.108;2022-12-18T00:01:18;-9.20;99.90
21844;DHT22;11084;52.482;9.108;2022-12-18T00:03:47;-9.40;99.90
21844;DHT22;11084;52.482;9.108;2022-12-18T00:06:14;-9.20;99.90
21844;DHT22;11084;52.482;9.108;2022-12-18T00:08:44;-9.30;99.90
21844;DHT22;11084;52.482;9.108;2022-12-18T00:11:17;-9.30;99.90
21844;DHT22;11084;52.482;9.108;2022-12-18T00:13:44;-9.30;99.90
21844;DHT22;11084;52.482;9.108;2022-12-18T00:16:14;-9.40;99.90
21844;DHT22;11084;52.482;9.108;2022-12-18T00:18:42;-9.30;99.90
21844;DHT22;11084;52.482;9.108;2022-12-18T00:21:10;-9.60;99.90
21844;DHT22;11084;52.482;9.108;2022-12-18T00:23:38;-9.40;99.90
21844;DHT22;11084;52.482;9.108;2022-12-18T00:26:07;-9.60;99.90
21844;DHT22;11084;52.482;9.108;2022-12-18T00:28:38;-9.40;99.90
21844;DHT22;11084;52.482;9.108;2022-12-18T00:31:06;-9.40;99.90
21844;DHT22;11084;52.482;9.108;2022-12-18T00:33:34;-9.40;99.90
21844;DHT22;11084;52.482;9.108;2022-12-18T00:36:05;-9.30;99.90
21844;DHT22;11084;52.482;9.108;2022-12-18T00:38:33;-9.50;99.90
21844;DHT22;11084;52.482;9.108;2022-12-18T00:41:00;-9.20;99.90
21844;DHT22;11084;52.482;9.108;2022-12-18T00:43:26;-9.30;99.90
21844;DHT22;11084;52.482;9.108;2022-12-18T00:45:53;-9.10;99.90
21844;DHT22;11084;52.482;9.108;2022-12-18T00:48:20;-9.20;99.90
21844;DHT22;11084;52.482;9.108;2022-12-18T00:50:50;-9.20;99.90
21844;DHT22;11084;52.482;9.108;2022-12-18T00:53:17;-9.20;99.90
21844;DHT22;11084;52.482;9.108;2022-12-18T00:55:43;-9.00;99.90
21844;DHT22;11084;52.482;9.108;2022-12-18T00:58:10;-9.10;99.90
21844;DHT22;11084;52.482;9.108;2022-12-18T01:00:37;-9.10;99.90
21844;DHT22;11084;52.482;9.108;2022-12-18T01:03:04;-5.20;99.90
21844;DHT22;11084;52.482;9.108;2022-12-18T01:05:31;-6.90;99.90
21844;DHT22;11084;52.482;9.108;2022-12-18T01:07:57;-9.00;99.90
21844;DHT22;11084;52.482;9.108;2022-12-18T01:10:24;-9.00;99.90
21844;DHT22;11084;52.482;9.108;2022-12-18T01:12:51;-6.90;99.90
21844;DHT22;11084;52.482;9.108;2022-12-18T01:15:18;-9.00;99.90
21844;DHT22;11084;52.482;9.108;2022-12-18T01:17:44;-8.80;99.90
21844;DHT22;11084;52.482;9.108;2022-12-18T01:20:12;-8.60;99.90
21844;DHT22;11084;52.482;9.108;2022-12-18T01:22:38;-8.80;99.90
21844;DHT22;11084;52.482;9.108;2022-12-18T01:25:07;-8.60;99.90
21844;DHT22;11084;52.482;9.108;2022-12-18T01:27:34;-8.80;99.90
21844;DHT22;11084;52.482;9.108;2022-12-18T01:30:03;-8.70;99.90
21844;DHT22;11084;52.482;9.108;2022-12-18T01:32:30;-8.80;99.90
21844;DHT22;11084;52.482;9.108;2022-12-18T01:35:00;-8.70;99.90
21844;DHT22;11084;52.482;9.108;2022-12-18T01:37:26;-8.70;99.90
21844;DHT22;11084;52.482;9.108;2022-12-18T01:39:53;-8.70;99.90
21844;DHT22;11084;52.482;9.108;2022-12-18T01:42:20;-8.50;99.90
21844;DHT22;11084;52.482;9.108;2022-12-18T01:47:47;-8.40;99.90
21844;DHT22;11084;52.482;9.108;2022-12-18T01:52:45;-7.10;99.90
21844;DHT22;11084;52.482;9.108;2022-12-18T01:55:16;-7.60;99.90
21844;DHT22;11084;52.482;9.108;2022-12-18T01:57:46;-8.50;99.90
21844;DHT22;11084;52.482;9.108;2022-12-18T02:00:18;-8.60;99.90
21844;DHT22;11084;52.482;9.108;2022-12-18T02:02:46;-8.50;99.90
21844;DHT22;11084;52.482;9.108;2022-12-18T02:05:19;-8.50;99.90
21844;DHT22;11084;52.482;9.108;2022-12-18T02:17:04;-8.50;99.90
21844;DHT22;11084;52.482;9.108;2022-12-18T02:20:02;-7.70;99.90
21844;DHT22;11084;52.482;9.108;2022-12-18T02:28:25;-8.40;99.90
21844;DHT22;11084;52.482;9.108;2022-12-18T02:30:59;-8.40;99.90
21844;DHT22;11084;52.482;9.108;2022-12-18T02:33:29;-8.40;99.90
21844;DHT22;11084;52.482;9.108;2022-12-18T02:35:57;-8.70;99.90
21844;DHT22;11084;52.482;9.108;2022-12-18T02:38:25;-8.50;99.90
21844;DHT22;11084;52.482;9.108;2022-12-18T02:40:54;-8.60;99.90
21844;DHT22;11084;52.482;9.108;2022-12-18T02:43:21;-8.50;99.90
21844;DHT22;11084;52.482;9.108;2022-12-18T02:45:59;-8.70;99.90
21844;DHT22;11084;52.482;9.108;2022-12-18T02:48:32;-8.70;99.90
21844;DHT22;11084;52.482;9.108;2022-12-18T02:51:12;-6.20;99.90
21844;DHT22;11084;52.482;9.108;2022-12-18T02:57:15;-9.00;99.90
21844;DHT22;11084;52.482;9.108;2022-12-18T03:02:53;-9.20;99.90
21844;DHT22;11084;52.482;9.108;2022-12-18T03:05:40;-9.20;99.90
21844;DHT22;11084;52.482;9.108;2022-12-18T03:08:12;-9.30;99.90
21844;DHT22;11084;52.482;9.108;2022-12-18T03:13:44;-9.20;99.90
21844;DHT22;11084;52.482;9.108;2022-12-18T03:16:18;-9.20;99.90
21844;DHT22;11084;52.482;9.108;2022-12-18T03:18:52;-9.30;99.90
21844;DHT22;11084;52.482;9.108;2022-12-18T03:21:26;-9.20;99.90
21844;DHT22;11084;52.482;9.108;2022-12-18T03:23:58;-9.30;99.90
21844;DHT22;11084;52.482;9.108;2022-12-18T03:26:27;-7.00;99.90
21844;DHT22;11084;52.482;9.108;2022-12-18T03:29:02;-9.30;99.90
21844;DHT22;11084;52.482;9.108;2022-12-18T03:31:33;-9.30;99.90
21844;DHT22;11084;52.482;9.108;2022-12-18T03:34:02;-9.40;99.90
21844;DHT22;11084;52.482;9.108;2022-12-18T03:36:38;-9.50;99.90
21844;DHT22;11084;52.482;9.108;2022-12-18T03:39:05;-9.40;99.90
21844;DHT22;11084;52.482;9.108;2022-12-18T03:41:50;-9.40;99.90
21844;DHT22;11084;52.482;9.108;2022-12-18T03:44:42;-9.50;99.90
21844;DHT22;11084;52.482;9.108;2022-12-18T03:47:43;-9.60;99.90
21844;DHT22;11084;52.482;9.108;2022-12-18T03:55:51;-9.90;99.90
21844;DHT22;11084;52.482;9.108;2022-12-18T03:58:21;-9.90;99.90
21844;DHT22;11084;52.482;9.108;2022-12-18T04:01:02;-9.80;99.90
21844;DHT22;11084;52.482;9.108;2022-12-18T04:03:31;-10.00;99.90
21844;DHT22;11084;52.482;9.108;2022-12-18T04:05:59;-10.10;99.90
21844;DHT22;11084;52.482;9.108;2022-12-18T04:08:28;-10.10;99.90
21844;DHT22;11084;52.482;9.108;2022-12-18T04:11:07;-10.10;99.90
21844;DHT22;11084;52.482;9.108;2022-12-18T04:13:38;-10.20;99.90
21844;DHT22;11084;52.482;9.108;2022-12-18T04:16:14;-10.30;99.90
21844;DHT22;11084;52.482;9.108;2022-12-18T04:21:10;-10.30;99.90
21844;DHT22;11084;52.482;9.108;2022-12-18T04:23:37;-10.30;99.90
21844;DHT22;11084;52.482;9.108;2022-12-18T04:26:03;-10.30;99.90
21844;DHT22;11084;52.482;9.108;2022-12-18T04:28:44;-10.50;99.90
21844;DHT22;11084;52.482;9.108;2022-12-18T04:31:11;-10.30;99.90
21844;DHT22;11084;52.482;9.108;2022-12-18T04:33:38;-10.60;99.90
21844;DHT22;11084;52.482;9.108;2022-12-18T04:38:32;-10.40;99.90
21844;DHT22;11084;52.482;9.108;2022-12-18T04:41:05;-10.40;99.90
21844;DHT22;11084;52.482;9.108;2022-12-18T04:46:06;-10.50;99.90
21844;DHT22;11084;52.482;9.108;2022-12-18T04:51:02;-10.20;99.90
21844;DHT22;11084;52.482;9.108;2022-12-18T04:53:29;-10.30;99.90
21844;DHT22;11084;52.482;9.108;2022-12-18T04:56:13;-10.30;99.90
21844;DHT22;11084;52.482;9.108;2022-12-18T04:58:41;-10.30;99.90
21844;DHT22;11084;52.482;9.108;2022-12-18T05:01:08;-10.50;99.90
21844;DHT22;11084;52.482;9.108;2022-12-18T05:03:35;-10.30;99.90
21844;DHT22;11084;52.482;9.108;2022-12-18T05:06:02;-10.40;99.90
21844;DHT22;11084;52.482;9.108;2022-12-18T05:08:29;-10.20;99.90
21844;DHT22;11084;52.482;9.108;2022-12-18T05:11:04;-10.20;99.90
21844;DHT22;11084;52.482;9.108;2022-12-18T05:13:32;-10.30;99.90
21844;DHT22;11084;52.482;9.108;2022-12-18T05:15:59;-10.10;99.90
21844;DHT22;11084;52.482;9.108;2022-12-18T05:18:26;-10.20;99.90
21844;DHT22;11084;52.482;9.108;2022-12-18T05:20:53;-10.00;99.90
21844;DHT22;11084;52.482;9.108;2022-12-18T05:23:20;-10.30;99.90
21844;DHT22;11084;52.482;9.108;2022-12-18T05:25:54;-9.90;99.90
21844;DHT22;11084;52.482;9.108;2022-12-18T05:28:22;-10.10;99.90
21844;DHT22;11084;52.482;9.108;2022-12-18T05:30:53;-10.20;99.90
21844;DHT22;11084;52.482;9.108;2022-12-18T05:33:21;-10.20;99.90
21844;DHT22;11084;52.482;9.108;2022-12-18T05:35:59;-10.20;99.90
21844;DHT22;11084;52.482;9.108;2022-12-18T05:38:29;-10.10;99.90
21844;DHT22;11084;52.482;9.108;2022-12-18T05:40:56;-10.40;99.90
21844;DHT22;11084;52.482;9.108;2022-12-18T05:43:24;-9.90;99.90
21844;DHT22;11084;52.482;9.108;2022-12-18T05:45:51;-10.10;99.90
21844;DHT22;11084;52.482;9.108;2022-12-18T05:48:18;-9.30;99.90
21844;DHT22;11084;52.482;9.108;2022-12-18T05:50:46;-10.20;99.90
21844;DHT22;11084;52.482;9.108;2022-12-18T05:53:15;-10.20;99.90
21844;DHT22;11084;52.482;9.108;2022-12-18T05:55:44;-10.20;99.90
21844;DHT22;11084;52.482;9.108;2022-12-18T05:58:11;-10.40;99.90
21844;DHT22;11084;52.482;9.108;2022-12-18T06:00:42;-10.20;99.90
21844;DHT22;11084;52.482;9.108;2022-12-18T06:03:10;-10.20;99.90
21844;DHT22;11084;52.482;9.108;2022-12-18T06:05:39;-10.10;99.90
21844;DHT22;11084;52.482;9.108;2022-12-18T06:08:09;-10.30;99.90
21844;DHT22;11084;52.482;9.108;2022-12-18T06:10:37;-10.30;99.90
21844;DHT22;11084;52.482;9.108;2022-12-18T06:13:04;-10.10;99.90
21844;DHT22;11084;52.482;9.108;2022-12-18T06:15:30;-10.10;99.90
21844;DHT22;11084;52.482;9.108;2022-12-18T06:17:57;-8.00;99.90
21844;DHT22;11084;52.482;9.108;2022-12-18T06:20:23;-10.10;99.90
21844;DHT22;11084;52.482;9.108;2022-12-18T06:22:49;-10.40;99.90
21844;DHT22;11084;52.482;9.108;2022-12-18T06:25:16;-7.10;99.90
21844;DHT22;11084;52.482;9.108;2022-12-18T06:27:42;-10.30;99.90
21844;DHT22;11084;52.482;9.108;2022-12-18T06:30:08;-10.60;99.90
21844;DHT22;11084;52.482;9.108;2022-12-18T06:32:35;-10.60;99.90
21844;DHT22;11084;52.482;9.108;2022-12-18T06:35:01;-10.60;99.90
21844;DHT22;11084;52.482;9.108;2022-12-18T06:37:27;-8.30;99.90
21844;DHT22;11084;52.482;9.108;2022-12-18T06:39:53;-10.60;99.90
21844;DHT22;11084;52.482;9.108;2022-12-18T06:42:19;-10.70;99.90
21844;DHT22;11084;52.482;9.108;2022-12-18T06:44:45;-10.80;99.90
21844;DHT22;11084;52.482;9.108;2022-12-18T06:47:11;-10.80;99.90
21844;DHT22;11084;52.482;9.108;2022-12-18T06:49:37;-10.70;99.90
21844;DHT22;11084;52.482;9.108;2022-12-18T06:52:03;-6.90;99.90
21844;DHT22;11084;52.482;9.108;2022-12-18T06:54:29;-10.70;99.90
21844;DHT22;11084;52.482;9.108;2022-12-18T06:56:55;-10.80;99.90
21844;DHT22;11084;52.482;9.108;2022-12-18T06:59:21;-10.80;99.90
21844;DHT22;11084;52.482;9.108;2022-12-18T07:01:47;-8.00;99.90
21844;DHT22;11084;52.482;9.108;2022-12-18T07:04:13;-10.60;99.90
21844;DHT22;11084;52.482;9.108;2022-12-18T07:06:39;-10.90;99.90
21844;DHT22;11084;52.482;9.108;2022-12-18T07:09:07;-11.00;99.90
21844;DHT22;11084;52.482;9.108;2022-12-18T07:11:36;-10.70;99.90
21844;DHT22;11084;52.482;9.108;2022-12-18T07:14:02;-10.90;99.90
21844;DHT22;11084;52.482;9.108;2022-12-18T07:16:30;-10.90;99.90
21844;DHT22;11084;52.482;9.108;2022-12-18T07:18:56;-10.90;99.90
21844;DHT22;11084;52.482;9.108;2022-12-18T07:21:23;-11.00;99.90
21844;DHT22;11084;52.482;9.108;2022-12-18T07:23:50;-11.10;99.90
21844;DHT22;11084;52.482;9.108;2022-12-18T07:26:18;-10.90;99.90
21844;DHT22;11084;52.482;9.108;2022-12-18T07:31:14;-11.00;99.90
21844;DHT22;11084;52.482;9.108;2022-12-18T07:36:10;-11.00;99.90
21844;DHT22;11084;52.482;9.108;2022-12-18T07:38:36;-9.50;99.90
21844;DHT22;11084;52.482;9.108;2022-12-18T07:41:03;-8.30;99.90
21844;DHT22;11084;52.482;9.108;2022-12-18T07:43:32;-10.90;99.90
21844;DHT22;11084;52.482;9.108;2022-12-18T07:45:58;-10.90;99.90
21844;DHT22;11084;52.482;9.108;2022-12-18T07:48:24;-10.90;99.90
21844;DHT22;11084;52.482;9.108;2022-12-18T07:50:50;-7.60;99.90
21844;DHT22;11084;52.482;9.108;2022-12-18T07:53:16;-8.60;99.90
21844;DHT22;11084;52.482;9.108;2022-12-18T07:55:42;-7.40;99.90
21844;DHT22;11084;52.482;9.108;2022-12-18T08:00:35;-4.60;99.90
21844;DHT22;11084;52.482;9.108;2022-12-18T08:03:01;-3.30;99.90
21844;DHT22;11084;52.482;9.108;2022-12-18T08:05:27;-2.30;99.90
21844;DHT22;11084;52.482;9.108;2022-12-18T08:07:54;0.20;99.90
21844;DHT22;11084;52.482;9.108;2022-12-18T08:10:20;-0.30;99.90
21844;DHT22;11084;52.482;9.108;2022-12-18T08:12:51;-0.40;99.90
21844;DHT22;11084;52.482;9.108;2022-12-18T08:15:17;1.20;99.90
21844;DHT22;11084;52.482;9.108;2022-12-18T08:17:49;2.40;99.90
21844;DHT22;11084;52.482;9.108;2022-12-18T08:20:15;3.60;99.90
21844;DHT22;11084;52.482;9.108;2022-12-18T08:22:42;4.60;99.90
21844;DHT22;11084;52.482;9.108;2022-12-18T08:25:09;4.70;99.90
21844;DHT22;11084;52.482;9.108;2022-12-18T08:27:35;5.60;99.90
21844;DHT22;11084;52.482;9.108;2022-12-18T08:30:00;6.40;99.90
21844;DHT22;11084;52.482;9.108;2022-12-18T08:32:27;7.10;98.90
21844;DHT22;11084;52.482;9.108;2022-12-18T08:34:53;7.30;97.30
21844;DHT22;11084;52.482;9.108;2022-12-18T08:37:19;5.90;93.80
21844;DHT22;11084;52.482;9.108;2022-12-18T08:39:45;4.30;96.10
21844;DHT22;11084;52.482;9.108;2022-12-18T08:42:11;3.00;99.40
21844;DHT22;11084;52.482;9.108;2022-12-18T08:44:55;2.90;99.90
21844;DHT22;11084;52.482;9.108;2022-12-18T08:47:21;1.60;99.90
21844;DHT22;11084;52.482;9.108;2022-12-18T08:49:47;0.70;99.90
21844;DHT22;11084;52.482;9.108;2022-12-18T08:54:40;-1.20;99.90
21844;DHT22;11084;52.482;9.108;2022-12-18T08:57:07;-2.50;99.90
21844;DHT22;11084;52.482;9.108;2022-12-18T08:59:33;-2.00;99.90
21844;DHT22;11084;52.482;9.108;2022-12-18T09:02:00;-2.40;99.90
21844;DHT22;11084;52.482;9.108;2022-12-18T09:06:52;-2.70;99.90
21844;DHT22;11084;52.482;9.108;2022-12-18T09:11:45;-2.90;99.90
21844;DHT22;11084;52.482;9.108;2022-12-18T09:14:11;-2.90;99.90
21844;DHT22;11084;52.482;9.108;2022-12-18T09:16:38;-3.00;99.90
21844;DHT22;11084;52.482;9.108;2022-12-18T09:19:04;-3.20;99.90
21844;DHT22;11084;52.482;9.108;2022-12-18T09:21:34;-3.20;99.90
21844;DHT22;11084;52.482;9.108;2022-12-18T09:24:06;-2.90;99.90
21844;DHT22;11084;52.482;9.108;2022-12-18T09:26:34;-3.40;99.90
21844;DHT22;11084;52.482;9.108;2022-12-18T09:29:02;-3.00;99.90
21844;DHT22;11084;52.482;9.108;2022-12-18T09:31:28;-3.20;99.90
21844;DHT22;11084;52.482;9.108;2022-12-18T09:33:55;-3.60;99.90
21844;DHT22;11084;52.482;9.108;2022-12-18T09:36:22;-3.60;99.90
21844;DHT22;11084;52.482;9.108;2022-12-18T09:41:26;-3.70;99.90
21844;DHT22;11084;52.482;9.108;2022-12-18T09:44:27;-3.80;99.90
21844;DHT22;11084;52.482;9.108;2022-12-18T09:49:47;-3.70;99.90
21844;DHT22;11084;52.482;9.108;2022-12-18T09:52:36;-3.70;99.90
21844;DHT22;11084;52.482;9.108;2022-12-18T09:57:49;-3.70;99.90
21844;DHT22;11084;52.482;9.108;2022-12-18T10:00:22;-3.60;99.90
21844;DHT22;11084;52.482;9.108;2022-12-18T10:02:59;-3.60;99.90
21844;DHT22;11084;52.482;9.108;2022-12-18T10:08:43;-3.60;99.90
21844;DHT22;11084;52.482;9.108;2022-12-18T10:11:22;-3.60;99.90
21844;DHT22;11084;52.482;9.108;2022-12-18T10:13:58;-3.60;99.90
21844;DHT22;11084;52.482;9.108;2022-12-18T10:28:12;-3.50;99.90
21844;DHT22;11084;52.482;9.108;2022-12-18T10:30:40;-3.50;99.90
21844;DHT22;11084;52.482;9.108;2022-12-18T10:33:16;-3.40;99.90
21844;DHT22;11084;52.482;9.108;2022-12-18T10:35:45;-3.40;99.90
21844;DHT22;11084;52.482;9.108;2022-12-18T10:48:40;-3.10;99.90
21844;DHT22;11084;52.482;9.108;2022-12-18T10:51:28;-3.00;99.90
21844;DHT22;11084;52.482;9.108;2022-12-18T10:54:01;-3.00;99.90
21844;DHT22;11084;52.482;9.108;2022-12-18T10:56:32;-2.90;99.90
21844;DHT22;11084;52.482;9.108;2022-12-18T10:59:05;-2.80;99.90
21844;DHT22;11084;52.482;9.108;2022-12-18T11:01:54;-2.30;99.90
21844;DHT22;11084;52.482;9.108;2022-12-18T11:04:30;-2.70;99.90
21844;DHT22;11084;52.482;9.108;2022-12-18T11:07:00;-2.60;99.90
21844;DHT22;11084;52.482;9.108;2022-12-18T11:09:29;-2.50;99.90
21844;DHT22;11084;52.482;9.108;2022-12-18T11:12:18;-2.50;99.90
21844;DHT22;11084;52.482;9.108;2022-12-18T11:14:49;-2.40;99.90
21844;DHT22;11084;52.482;9.108;2022-12-18T11:17:43;-2.40;99.90
21844;DHT22;11084;52.482;9.108;2022-12-18T11:23:04;-2.20;99.90
21844;DHT22;11084;52.482;9.108;2022-12-18T11:25:32;-2.10;99.90
21844;DHT22;11084;52.482;9.108;2022-12-18T11:28:34;-2.10;99.90
21844;DHT22;11084;52.482;9.108;2022-12-18T11:34:01;-1.90;99.90
21844;DHT22;11084;52.482;9.108;2022-12-18T11:36:39;-1.90;99.90
21844;DHT22;11084;52.482;9.108;2022-12-18T11:45:35;-1.70;99.90
21844;DHT22;11084;52.482;9.108;2022-12-18T11:48:16;-1.80;99.90
21844;DHT22;11084;52.482;9.108;2022-12-18T11:50:58;-1.70;99.90
21844;DHT22;11084;52.482;9.108;2022-12-18T11:53:27;-1.70;99.90
21844;DHT22;11084;52.482;9.108;2022-12-18T11:59:25;-1.70;99.90
21844;DHT22;11084;52.482;9.108;2022-12-18T12:05:44;-1.70;99.90
21844;DHT22;11084;52.482;9.108;2022-12-18T12:11:47;-1.70;99.90
21844;DHT22;11084;52.482;9.108;2022-12-18T12:15:06;-1.80;99.90
21844;DHT22;11084;52.482;9.108;2022-12-18T12:26:45;-1.80;99.90
21844;DHT22;11084;52.482;9.108;2022-12-18T12:40:34;-0.90;99.90
21844;DHT22;11084;52.482;9.108;2022-12-18T12:45:57;-1.50;99.90
21844;DHT22;11084;52.482;9.108;2022-12-18T12:48:49;-1.20;99.90
21844;DHT22;11084;52.482;9.108;2022-12-18T12:51:22;-1.70;99.90
21844;DHT22;11084;52.482;9.108;2022-12-18T12:53:52;-1.70;99.90
21844;DHT22;11084;52.482;9.108;2022-12-18T12:56:20;-1.60;99.90
21844;DHT22;11084;52.482;9.108;2022-12-18T13:07:38;-1.60;99.90
21844;DHT22;11084;52.482;9.108;2022-12-18T13:10:24;-1.60;99.90
21844;DHT22;11084;52.482;9.108;2022-12-18T13:15:49;-1.60;99.90
21844;DHT22;11084;52.482;9.108;2022-12-18T13:18:30;-1.60;99.90
21844;DHT22;11084;52.482;9.108;2022-12-18T13:34:20;-1.60;99.90
21844;DHT22;11084;52.482;9.108;2022-12-18T13:36:47;-1.60;99.90
21844;DHT22;11084;52.482;9.108;2022-12-18T13:41:40;-1.60;99.90
21844;DHT22;11084;52.482;9.108;2022-12-18T13:46:59;-1.70;99.90
21844;DHT22;11084;52.482;9.108;2022-12-18T13:49:39;-1.70;99.90
21844;DHT22;11084;52.482;9.108;2022-12-18T13:52:20;-1.70;99.90
21844;DHT22;11084;52.482;9.108;2022-12-18T13:54:54;-1.70;99.90
21844;DHT22;11084;52.482;9.108;2022-12-18T13:57:30;-1.70;99.90
21844;DHT22;11084;52.482;9.108;2022-12-18T14:00:14;-1.70;99.90
21844;DHT22;11084;52.482;9.108;2022-12-18T14:02:48;-1.70;99.90
21844;DHT22;11084;52.482;9.108;2022-12-18T14:05:42;-1.70;99.90
21844;DHT22;11084;52.482;9.108;2022-12-18T14:08:14;-1.70;99.90
21844;DHT22;11084;52.482;9.108;2022-12-18T14:10:42;-1.80;99.90
21844;DHT22;11084;52.482;9.108;2022-12-18T14:13:14;-1.70;99.90
21844;DHT22;11084;52.482;9.108;2022-12-18T14:16:04;-1.60;99.90
21844;DHT22;11084;52.482;9.108;2022-12-18T14:18:55;-1.80;99.90
21844;DHT22;11084;52.482;9.108;2022-12-18T14:21:25;-1.80;99.90
21844;DHT22;11084;52.482;9.108;2022-12-18T14:24:14;-1.80;99.90
21844;DHT22;11084;52.482;9.108;2022-12-18T14:26:41;-1.80;99.90
21844;DHT22;11084;52.482;9.108;2022-12-18T14:29:28;-1.80;99.90
21844;DHT22;11084;52.482;9.108;2022-12-18T14:32:11;-1.80;99.90
21844;DHT22;11084;52.482;9.108;2022-12-18T14:34:50;-1.80;99.90
21844;DHT22;11084;52.482;9.108;2022-12-18T14:37:21;-1.80;99.90
21844;DHT22;11084;52.482;9.108;2022-12-18T14:39:59;-1.80;99.90
21844;DHT22;11084;52.482;9.108;2022-12-18T14:42:27;-1.90;99.90
21844;DHT22;11084;52.482;9.108;2022-12-18T14:48:25;-1.80;99.90
21844;DHT22;11084;52.482;9.108;2022-12-18T14:51:06;-1.90;99.90
21844;DHT22;11084;52.482;9.108;2022-12-18T14:56:31;-1.90;99.90
21844;DHT22;11084;52.482;9.108;2022-12-18T14:59:12;-2.00;99.90
21844;DHT22;11084;52.482;9.108;2022-12-18T15:02:25;-2.00;99.90
21844;DHT22;11084;52.482;9.108;2022-12-18T15:07:49;-2.00;99.90
21844;DHT22;11084;52.482;9.108;2022-12-18T15:10:23;-2.00;99.90
21844;DHT22;11084;52.482;9.108;2022-12-18T15:13:15;-2.00;99.90
21844;DHT22;11084;52.482;9.108;2022-12-18T15:15:50;-2.10;99.90
21844;DHT22;11084;52.482;9.108;2022-12-18T15:18:18;-2.00;99.90
21844;DHT22;11084;52.482;9.108;2022-12-18T15:20:57;-2.00;99.90
21844;DHT22;11084;52.482;9.108;2022-12-18T15:23:30;-2.10;99.90
21844;DHT22;11084;52.482;9.108;2022-12-18T15:26:08;-1.80;99.90
21844;DHT22;11084;52.482;9.108;2022-12-18T15:34:09;-2.10;99.90
21844;DHT22;11084;52.482;9.108;2022-12-18T15:36:40;-2.20;99.90
21844;DHT22;11084;52.482;9.108;2022-12-18T15:39:06;-2.20;99.90
21844;DHT22;11084;52.482;9.108;2022-12-18T15:41:36;-2.10;99.90
21844;DHT22;11084;52.482;9.108;2022-12-18T15:44:02;-2.20;99.90
21844;DHT22;11084;52.482;9.108;2022-12-18T15:46:29;-2.20;99.90
21844;DHT22;11084;52.482;9.108;2022-12-18T15:48:57;-2.30;99.90
21844;DHT22;11084;52.482;9.108;2022-12-18T15:51:30;-2.20;99.90
21844;DHT22;11084;52.482;9.108;2022-12-18T15:54:02;-2.30;99.90
21844;DHT22;11084;52.482;9.108;2022-12-18T15:56:30;-2.20;99.90
21844;DHT22;11084;52.482;9.108;2022-12-18T15:59:19;-2.30;99.90
21844;DHT22;11084;52.482;9.108;2022-12-18T16:01:48;-2.30;99.90
21844;DHT22;11084;52.482;9.108;2022-12-18T16:04:17;-2.30;99.90
21844;DHT22;11084;52.482;9.108;2022-12-18T16:06:46;-2.30;99.90
21844;DHT22;11084;52.482;9.108;2022-12-18T16:11:42;-2.40;99.90
21844;DHT22;11084;52.482;9.108;2022-12-18T16:14:27;-2.40;99.90
21844;DHT22;11084;52.482;9.108;2022-12-18T16:16:57;-2.40;99.90
21844;DHT22;11084;52.482;9.108;2022-12-18T16:21:54;-2.40;99.90
21844;DHT22;11084;52.482;9.108;2022-12-18T16:24:23;-1.70;99.90
21844;DHT22;11084;52.482;9.108;2022-12-18T16:26:54;-2.30;99.90
21844;DHT22;11084;52.482;9.108;2022-12-18T16:29:21;-2.30;99.90
21844;DHT22;11084;52.482;9.108;2022-12-18T16:31:51;-1.90;99.90
21844;DHT22;11084;52.482;9.108;2022-12-18T16:34:22;-2.40;99.90
21844;DHT22;11084;52.482;9.108;2022-12-18T16:36:53;-2.40;99.90
21844;DHT22;11084;52.482;9.108;2022-12-18T16:39:20;-2.40;99.90
21844;DHT22;11084;52.482;9.108;2022-12-18T16:41:47;-2.20;99.90
21844;DHT22;11084;52.482;9.108;2022-12-18T16:44:14;-2.30;99.90
21844;DHT22;11084;52.482;9.108;2022-12-18T16:46:40;-2.30;99.90
21844;DHT22;11084;52.482;9.108;2022-12-18T16:49:12;-2.20;99.90
21844;DHT22;11084;52.482;9.108;2022-12-18T16:51:42;-2.30;99.90
21844;DHT22;11084;52.482;9.108;2022-12-18T16:54:11;-2.40;99.90
21844;DHT22;11084;52.482;9.108;2022-12-18T16:56:38;-2.30;99.90
21844;DHT22;11084;52.482;9.108;2022-12-18T16:59:04;-2.30;99.90
21844;DHT22;11084;52.482;9.108;2022-12-18T17:01:31;-2.30;99.90
21844;DHT22;11084;52.482;9.108;2022-12-18T17:03:59;-2.30;99.90
21844;DHT22;11084;52.482;9.108;2022-12-18T17:06:32;-2.30;99.90
21844;DHT22;11084;52.482;9.108;2022-12-18T17:09:07;-2.20;99.90
21844;DHT22;11084;52.482;9.108;2022-12-18T17:11:35;-2.20;99.90
21844;DHT22;11084;52.482;9.108;2022-12-18T17:14:09;-2.20;99.90
21844;DHT22;11084;52.482;9.108;2022-12-18T17:16:40;-2.20;99.90
21844;DHT22;11084;52.482;9.108;2022-12-18T17:19:09;-2.20;99.90
21844;DHT22;11084;52.482;9.108;2022-12-18T17:21:35;-2.20;99.90
21844;DHT22;11084;52.482;9.108;2022-12-18T17:24:02;-1.60;99.90
21844;DHT22;11084;52.482;9.108;2022-12-18T17:26:28;-2.10;99.90
21844;DHT22;11084;52.482;9.108;2022-12-18T17:28:56;-2.10;99.90
21844;DHT22;11084;52.482;9.108;2022-12-18T17:31:25;-2.10;99.90
21844;DHT22;11084;52.482;9.108;2022-12-18T17:33:53;-2.10;99.90
21844;DHT22;11084;52.482;9.108;2022-12-18T17:36:20;-2.10;99.90
21844;DHT22;11084;52.482;9.108;2022-12-18T17:38:51;-2.10;99.90
21844;DHT22;11084;52.482;9.108;2022-12-18T17:41:18;-2.00;99.90
21844;DHT22;11084;52.482;9.108;2022-12-18T17:43:57;-2.00;99.90
21844;DHT22;11084;52.482;9.108;2022-12-18T17:46:30;-2.00;99.90
21844;DHT22;11084;52.482;9.108;2022-12-18T17:48:59;-2.00;99.90
21844;DHT22;11084;52.482;9.108;2022-12-18T17:56:22;-1.90;99.90
21844;DHT22;11084;52.482;9.108;2022-12-18T17:58:49;-1.90;99.90
21844;DHT22;11084;52.482;9.108;2022-12-18T18:01:22;-1.40;99.90
21844;DHT22;11084;52.482;9.108;2022-12-18T18:03:49;-1.80;99.90
21844;DHT22;11084;52.482;9.108;2022-12-18T18:06:16;-1.80;99.90
21844;DHT22;11084;52.482;9.108;2022-12-18T18:08:42;-1.80;99.90
21844;DHT22;11084;52.482;9.108;2022-12-18T18:11:12;-1.80;99.90
21844;DHT22;11084;52.482;9.108;2022-12-18T18:13:59;-1.80;99.90
21844;DHT22;11084;52.482;9.108;2022-12-18T18:16:28;-1.70;99.90
21844;DHT22;11084;52.482;9.108;2022-12-18T18:19:02;-1.70;99.90
21844;DHT22;11084;52.482;9.108;2022-12-18T18:21:30;-1.70;99.90
21844;DHT22;11084;52.482;9.108;2022-12-18T18:24:01;-1.60;99.90
21844;DHT22;11084;52.482;9.108;2022-12-18T18:26:30;-1.60;99.90
21844;DHT22;11084;52.482;9.108;2022-12-18T18:28:58;-1.60;99.90
21844;DHT22;11084;52.482;9.108;2022-12-18T18:31:27;-1.50;99.90
21844;DHT22;11084;52.482;9.108;2022-12-18T18:33:55;-1.50;99.90
21844;DHT22;11084;52.482;9.108;2022-12-18T18:38:49;-1.40;99.90
21844;DHT22;11084;52.482;9.108;2022-12-18T18:41:15;-1.40;99.90
21844;DHT22;11084;52.482;9.108;2022-12-18T18:46:11;-1.40;99.90
21844;DHT22;11084;52.482;9.108;2022-12-18T18:48:39;-1.30;99.90
21844;DHT22;11084;52.482;9.108;2022-12-18T18:51:10;-1.40;99.90
21844;DHT22;11084;52.482;9.108;2022-12-18T18:53:40;-1.30;99.90
21844;DHT22;11084;52.482;9.108;2022-12-18T18:56:09;-1.20;99.90
21844;DHT22;11084;52.482;9.108;2022-12-18T18:58:36;-1.30;99.90
21844;DHT22;11084;52.482;9.108;2022-12-18T19:01:08;-1.20;99.90
21844;DHT22;11084;52.482;9.108;2022-12-18T19:03:43;-1.20;99.90
21844;DHT22;11084;52.482;9.108;2022-12-18T19:06:28;-1.10;99.90
21844;DHT22;11084;52.482;9.108;2022-12-18T19:08:55;-1.10;99.90
21844;DHT22;11084;52.482;9.108;2022-12-18T19:11:22;-0.60;99.90